KDEH/DEH METAR and TAF weather

Enter ICAO airport designator
Station Type Date Time Source
KDEH METAR 2023/01/29 18:35 UTC NOAA

KDEH 291835Z AUTO 33014KT 10SM CLR M15/M21 A3031 RMK AO2


Station Type Date Time Source
KDEH Decoded METAR 2023/01/29 18:35 UTC NOAA

Decorah, IA, United States (KDEH) 43-17N 091-44W
Jan 29, 2023 - 01:35 PM EST / 2023.01.29 1835 UTC
Wind: from the NNW (330 degrees) at 16 MPH (14 KT):0
Visibility: 10 mile(s):0
Sky conditions: clear
Temperature: 5 F (-15 C)
Windchill: -13 F (-25 C):2
Dew Point: -5 F (-21 C)
Relative Humidity: 60%
Pressure (altimeter): 30.31 in. Hg (1026 hPa)
ob: KDEH 291835Z AUTO 33014KT 10SM CLR M15/M21 A3031 RMK AO2
cycle: 18

Station Type Date Time Source
KDEH TAF UTC NOAA

Error!

Example: see airport list